aviador You're here:

CYBQ Decoded Metar

in
Report Time2017-08-22 03:00:00
UTC Time2017-08-22 03:17:15
Flight Rules ifr IFR
Wind060° at 07 kt
W.Decomp.*RWY 07: 6.9 kt HW 1.2 kt LCW
W.Rank060° ranks 30
Current wind is above 060° avg. (6.6)
Visibility9999 m
Phenomena:N/A
Clouds:Broken 009 Hf
Broken 016 Hf
Overcast 029 Hf
Expected CloudBase > 400 ft AGL from Temp-Dew spread
Ceiling900 ft
Temp11°C
Dew Point10°C (94% RH)
AAT8.5°C
QNH1015 hPa
Raw Report
METAR CYBQ 220300Z AUTO 06007KT 9SM BKN009 BKN016 OVC029 11/10 A2998
RMK SLP166=

Extra information for CYBQ:More info

Social comments